sensor_id;sensor_type;location;lat;lon;timestamp;P1;durP1;ratioP1;P2;durP2;ratioP2
36377;SDS011;22402;42.746;23.606;2023-09-19T00:00:30;5.90;;;5.10;;
36377;SDS011;22402;42.746;23.606;2023-09-19T00:02:57;7.00;;;5.93;;
36377;SDS011;22402;42.746;23.606;2023-09-19T00:05:26;6.30;;;5.10;;
36377;SDS011;22402;42.746;23.606;2023-09-19T00:07:54;6.87;;;5.20;;
36377;SDS011;22402;42.746;23.606;2023-09-19T00:10:24;5.90;;;4.50;;
36377;SDS011;22402;42.746;23.606;2023-09-19T00:12:54;5.13;;;4.63;;
36377;SDS011;22402;42.746;23.606;2023-09-19T00:15:24;7.33;;;4.63;;
36377;SDS011;22402;42.746;23.606;2023-09-19T00:17:55;6.10;;;5.07;;
36377;SDS011;22402;42.746;23.606;2023-09-19T00:20:21;6.23;;;4.57;;
36377;SDS011;22402;42.746;23.606;2023-09-19T00:22:50;6.27;;;5.10;;
36377;SDS011;22402;42.746;23.606;2023-09-19T00:25:19;9.43;;;4.80;;
36377;SDS011;22402;42.746;23.606;2023-09-19T00:27:45;6.10;;;4.87;;
36377;SDS011;22402;42.746;23.606;2023-09-19T00:30:17;7.17;;;4.77;;
36377;SDS011;22402;42.746;23.606;2023-09-19T00:32:47;6.77;;;4.70;;
36377;SDS011;22402;42.746;23.606;2023-09-19T00:35:22;8.23;;;5.60;;
36377;SDS011;22402;42.746;23.606;2023-09-19T00:37:51;6.70;;;5.30;;
36377;SDS011;22402;42.746;23.606;2023-09-19T00:40:17;12.57;;;5.57;;
36377;SDS011;22402;42.746;23.606;2023-09-19T00:42:43;6.00;;;5.37;;
36377;SDS011;22402;42.746;23.606;2023-09-19T00:45:13;6.53;;;5.27;;
36377;SDS011;22402;42.746;23.606;2023-09-19T00:47:40;5.47;;;4.87;;
36377;SDS011;22402;42.746;23.606;2023-09-19T00:50:09;6.13;;;4.60;;
36377;SDS011;22402;42.746;23.606;2023-09-19T00:52:38;6.30;;;5.33;;
36377;SDS011;22402;42.746;23.606;2023-09-19T00:55:08;8.40;;;5.43;;
36377;SDS011;22402;42.746;23.606;2023-09-19T00:57:34;4.37;;;3.80;;
36377;SDS011;22402;42.746;23.606;2023-09-19T01:00:05;6.30;;;4.93;;
36377;SDS011;22402;42.746;23.606;2023-09-19T01:02:33;7.40;;;5.43;;
36377;SDS011;22402;42.746;23.606;2023-09-19T01:05:00;6.13;;;4.40;;
36377;SDS011;22402;42.746;23.606;2023-09-19T01:07:26;8.30;;;5.13;;
36377;SDS011;22402;42.746;23.606;2023-09-19T01:09:55;7.40;;;4.77;;
36377;SDS011;22402;42.746;23.606;2023-09-19T01:12:27;6.50;;;4.90;;
36377;SDS011;22402;42.746;23.606;2023-09-19T01:15:01;5.87;;;5.30;;
36377;SDS011;22402;42.746;23.606;2023-09-19T01:17:34;6.70;;;5.77;;
36377;SDS011;22402;42.746;23.606;2023-09-19T01:23:11;6.27;;;4.93;;
36377;SDS011;22402;42.746;23.606;2023-09-19T01:32:01;7.83;;;5.47;;
36377;SDS011;22402;42.746;23.606;2023-09-19T01:34:48;5.70;;;4.73;;
36377;SDS011;22402;42.746;23.606;2023-09-19T01:37:16;10.33;;;5.27;;
36377;SDS011;22402;42.746;23.606;2023-09-19T01:39:45;8.10;;;5.10;;
36377;SDS011;22402;42.746;23.606;2023-09-19T01:42:24;6.03;;;4.70;;
36377;SDS011;22402;42.746;23.606;2023-09-19T01:45:06;6.40;;;4.60;;
36377;SDS011;22402;42.746;23.606;2023-09-19T01:52:57;10.63;;;5.27;;
36377;SDS011;22402;42.746;23.606;2023-09-19T01:55:29;6.00;;;5.07;;
36377;SDS011;22402;42.746;23.606;2023-09-19T02:00:29;9.23;;;5.43;;
36377;SDS011;22402;42.746;23.606;2023-09-19T02:02:59;7.30;;;5.73;;
36377;SDS011;22402;42.746;23.606;2023-09-19T02:05:25;6.83;;;5.30;;
36377;SDS011;22402;42.746;23.606;2023-09-19T02:07:52;8.20;;;5.07;;
36377;SDS011;22402;42.746;23.606;2023-09-19T02:10:21;9.40;;;5.97;;
36377;SDS011;22402;42.746;23.606;2023-09-19T02:12:47;7.60;;;5.10;;
36377;SDS011;22402;42.746;23.606;2023-09-19T02:15:13;7.00;;;5.80;;
36377;SDS011;22402;42.746;23.606;2023-09-19T02:17:40;8.47;;;5.47;;
36377;SDS011;22402;42.746;23.606;2023-09-19T02:20:07;5.73;;;5.20;;
36377;SDS011;22402;42.746;23.606;2023-09-19T02:22:35;6.30;;;5.30;;
36377;SDS011;22402;42.746;23.606;2023-09-19T02:25:00;7.07;;;5.40;;
36377;SDS011;22402;42.746;23.606;2023-09-19T02:27:27;7.80;;;5.60;;
36377;SDS011;22402;42.746;23.606;2023-09-19T02:29:52;6.30;;;5.07;;
36377;SDS011;22402;42.746;23.606;2023-09-19T02:32:18;7.27;;;5.77;;
36377;SDS011;22402;42.746;23.606;2023-09-19T02:34:43;9.00;;;5.00;;
36377;SDS011;22402;42.746;23.606;2023-09-19T02:37:09;6.30;;;5.37;;
36377;SDS011;22402;42.746;23.606;2023-09-19T02:39:35;7.23;;;5.67;;
36377;SDS011;22402;42.746;23.606;2023-09-19T02:42:01;7.37;;;5.77;;
36377;SDS011;22402;42.746;23.606;2023-09-19T02:44:29;5.63;;;4.83;;
36377;SDS011;22402;42.746;23.606;2023-09-19T02:46:54;7.10;;;5.87;;
36377;SDS011;22402;42.746;23.606;2023-09-19T02:51:48;8.90;;;5.67;;
36377;SDS011;22402;42.746;23.606;2023-09-19T02:54:14;6.23;;;5.10;;
36377;SDS011;22402;42.746;23.606;2023-09-19T02:56:41;5.70;;;4.83;;
36377;SDS011;22402;42.746;23.606;2023-09-19T02:59:06;5.83;;;5.33;;
36377;SDS011;22402;42.746;23.606;2023-09-19T03:01:32;5.70;;;5.10;;
36377;SDS011;22402;42.746;23.606;2023-09-19T03:03:59;8.73;;;5.17;;
36377;SDS011;22402;42.746;23.606;2023-09-19T03:06:24;7.30;;;5.90;;
36377;SDS011;22402;42.746;23.606;2023-09-19T03:08:50;7.63;;;4.40;;
36377;SDS011;22402;42.746;23.606;2023-09-19T03:11:16;7.37;;;5.50;;
36377;SDS011;22402;42.746;23.606;2023-09-19T03:13:50;8.30;;;6.73;;
36377;SDS011;22402;42.746;23.606;2023-09-19T03:16:16;7.63;;;5.47;;
36377;SDS011;22402;42.746;23.606;2023-09-19T03:18:44;7.77;;;5.83;;
36377;SDS011;22402;42.746;23.606;2023-09-19T03:21:10;7.57;;;5.03;;
36377;SDS011;22402;42.746;23.606;2023-09-19T03:23:43;14.60;;;5.63;;
36377;SDS011;22402;42.746;23.606;2023-09-19T03:26:13;7.47;;;5.63;;
36377;SDS011;22402;42.746;23.606;2023-09-19T03:28:40;6.10;;;5.00;;
36377;SDS011;22402;42.746;23.606;2023-09-19T03:31:07;6.70;;;5.07;;
36377;SDS011;22402;42.746;23.606;2023-09-19T03:33:33;9.20;;;5.60;;
36377;SDS011;22402;42.746;23.606;2023-09-19T03:35:59;6.57;;;5.20;;
36377;SDS011;22402;42.746;23.606;2023-09-19T03:38:26;6.80;;;5.80;;
36377;SDS011;22402;42.746;23.606;2023-09-19T03:40:53;9.53;;;6.07;;
36377;SDS011;22402;42.746;23.606;2023-09-19T03:43:19;8.23;;;5.17;;
36377;SDS011;22402;42.746;23.606;2023-09-19T03:45:44;11.23;;;5.00;;
36377;SDS011;22402;42.746;23.606;2023-09-19T03:48:11;6.63;;;5.97;;
36377;SDS011;22402;42.746;23.606;2023-09-19T03:50:40;9.23;;;5.10;;
36377;SDS011;22402;42.746;23.606;2023-09-19T03:53:06;10.90;;;6.50;;
36377;SDS011;22402;42.746;23.606;2023-09-19T03:55:34;8.20;;;6.00;;
36377;SDS011;22402;42.746;23.606;2023-09-19T03:58:01;11.30;;;6.00;;
36377;SDS011;22402;42.746;23.606;2023-09-19T04:00:27;9.00;;;5.43;;
36377;SDS011;22402;42.746;23.606;2023-09-19T04:02:54;5.90;;;5.30;;
36377;SDS011;22402;42.746;23.606;2023-09-19T04:05:21;7.13;;;5.00;;
36377;SDS011;22402;42.746;23.606;2023-09-19T04:07:50;6.60;;;5.73;;
36377;SDS011;22402;42.746;23.606;2023-09-19T04:10:16;6.47;;;5.77;;
36377;SDS011;22402;42.746;23.606;2023-09-19T04:12:52;5.87;;;5.23;;
36377;SDS011;22402;42.746;23.606;2023-09-19T04:15:18;7.60;;;5.90;;
36377;SDS011;22402;42.746;23.606;2023-09-19T04:17:43;6.30;;;5.20;;
36377;SDS011;22402;42.746;23.606;2023-09-19T04:20:09;7.33;;;4.90;;
36377;SDS011;22402;42.746;23.606;2023-09-19T04:22:37;8.03;;;6.13;;
36377;SDS011;22402;42.746;23.606;2023-09-19T04:25:04;6.00;;;5.03;;
36377;SDS011;22402;42.746;23.606;2023-09-19T04:27:31;6.00;;;5.40;;
36377;SDS011;22402;42.746;23.606;2023-09-19T04:29:57;7.50;;;6.13;;
36377;SDS011;22402;42.746;23.606;2023-09-19T04:32:26;10.00;;;6.00;;
36377;SDS011;22402;42.746;23.606;2023-09-19T04:34:53;5.33;;;4.83;;
36377;SDS011;22402;42.746;23.606;2023-09-19T04:37:19;8.03;;;6.03;;
36377;SDS011;22402;42.746;23.606;2023-09-19T04:39:53;6.97;;;6.10;;
36377;SDS011;22402;42.746;23.606;2023-09-19T04:42:19;11.20;;;5.90;;
36377;SDS011;22402;42.746;23.606;2023-09-19T04:44:46;6.70;;;5.80;;
36377;SDS011;22402;42.746;23.606;2023-09-19T04:47:14;5.50;;;4.87;;
36377;SDS011;22402;42.746;23.606;2023-09-19T04:49:41;7.00;;;5.70;;
36377;SDS011;22402;42.746;23.606;2023-09-19T04:52:06;9.03;;;5.27;;
36377;SDS011;22402;42.746;23.606;2023-09-19T04:54:35;8.50;;;6.10;;
36377;SDS011;22402;42.746;23.606;2023-09-19T04:57:00;7.87;;;6.23;;
36377;SDS011;22402;42.746;23.606;2023-09-19T04:59:26;5.27;;;4.77;;
36377;SDS011;22402;42.746;23.606;2023-09-19T05:01:53;5.80;;;5.20;;
36377;SDS011;22402;42.746;23.606;2023-09-19T05:04:18;8.80;;;5.37;;
36377;SDS011;22402;42.746;23.606;2023-09-19T05:06:44;6.40;;;5.80;;
36377;SDS011;22402;42.746;23.606;2023-09-19T05:09:10;7.97;;;5.77;;
36377;SDS011;22402;42.746;23.606;2023-09-19T05:11:35;7.40;;;5.60;;
36377;SDS011;22402;42.746;23.606;2023-09-19T05:14:03;7.83;;;5.30;;
36377;SDS011;22402;42.746;23.606;2023-09-19T05:16:29;6.37;;;4.80;;
36377;SDS011;22402;42.746;23.606;2023-09-19T05:18:56;7.80;;;4.60;;
36377;SDS011;22402;42.746;23.606;2023-09-19T05:21:25;7.17;;;5.07;;
36377;SDS011;22402;42.746;23.606;2023-09-19T05:23:53;5.93;;;5.33;;
36377;SDS011;22402;42.746;23.606;2023-09-19T05:26:19;7.40;;;5.37;;
36377;SDS011;22402;42.746;23.606;2023-09-19T05:28:45;8.80;;;5.60;;
36377;SDS011;22402;42.746;23.606;2023-09-19T05:31:13;6.20;;;4.77;;
36377;SDS011;22402;42.746;23.606;2023-09-19T05:33:39;5.83;;;5.23;;
36377;SDS011;22402;42.746;23.606;2023-09-19T05:36:04;7.27;;;4.93;;
36377;SDS011;22402;42.746;23.606;2023-09-19T05:38:30;6.83;;;4.90;;
36377;SDS011;22402;42.746;23.606;2023-09-19T05:40:57;6.10;;;5.00;;
36377;SDS011;22402;42.746;23.606;2023-09-19T05:43:23;5.40;;;4.90;;
36377;SDS011;22402;42.746;23.606;2023-09-19T05:45:48;8.90;;;5.77;;
36377;SDS011;22402;42.746;23.606;2023-09-19T05:48:17;7.93;;;5.17;;
36377;SDS011;22402;42.746;23.606;2023-09-19T05:50:43;6.60;;;5.03;;
36377;SDS011;22402;42.746;23.606;2023-09-19T05:53:11;8.20;;;5.50;;
36377;SDS011;22402;42.746;23.606;2023-09-19T05:55:37;10.43;;;5.20;;
36377;SDS011;22402;42.746;23.606;2023-09-19T05:58:03;5.73;;;4.70;;
36377;SDS011;22402;42.746;23.606;2023-09-19T06:00:34;7.43;;;5.03;;
36377;SDS011;22402;42.746;23.606;2023-09-19T06:03:01;5.27;;;4.77;;
36377;SDS011;22402;42.746;23.606;2023-09-19T06:05:27;6.07;;;5.13;;
36377;SDS011;22402;42.746;23.606;2023-09-19T06:07:55;6.50;;;4.90;;
36377;SDS011;22402;42.746;23.606;2023-09-19T06:10:21;4.83;;;4.33;;
36377;SDS011;22402;42.746;23.606;2023-09-19T06:12:47;8.30;;;4.90;;
36377;SDS011;22402;42.746;23.606;2023-09-19T06:15:14;4.93;;;4.33;;
36377;SDS011;22402;42.746;23.606;2023-09-19T06:17:47;6.30;;;4.73;;
36377;SDS011;22402;42.746;23.606;2023-09-19T06:20:13;4.83;;;4.40;;
36377;SDS011;22402;42.746;23.606;2023-09-19T06:22:43;5.10;;;4.40;;
36377;SDS011;22402;42.746;23.606;2023-09-19T06:25:10;5.77;;;4.43;;
36377;SDS011;22402;42.746;23.606;2023-09-19T06:27:39;5.17;;;3.80;;
36377;SDS011;22402;42.746;23.606;2023-09-19T06:30:09;4.00;;;3.60;;
36377;SDS011;22402;42.746;23.606;2023-09-19T06:32:36;4.80;;;4.30;;
36377;SDS011;22402;42.746;23.606;2023-09-19T06:35:02;5.47;;;3.90;;
36377;SDS011;22402;42.746;23.606;2023-09-19T06:37:28;4.47;;;3.63;;
36377;SDS011;22402;42.746;23.606;2023-09-19T06:39:54;4.83;;;3.90;;
36377;SDS011;22402;42.746;23.606;2023-09-19T06:42:19;4.10;;;3.70;;
36377;SDS011;22402;42.746;23.606;2023-09-19T06:44:47;6.60;;;4.17;;
36377;SDS011;22402;42.746;23.606;2023-09-19T06:47:16;4.40;;;3.73;;
36377;SDS011;22402;42.746;23.606;2023-09-19T06:49:42;5.67;;;3.20;;
36377;SDS011;22402;42.746;23.606;2023-09-19T06:52:10;4.90;;;4.10;;
36377;SDS011;22402;42.746;23.606;2023-09-19T06:54:36;3.83;;;3.43;;
36377;SDS011;22402;42.746;23.606;2023-09-19T06:57:02;4.73;;;3.87;;
36377;SDS011;22402;42.746;23.606;2023-09-19T06:59:28;3.60;;;3.27;;
36377;SDS011;22402;42.746;23.606;2023-09-19T07:01:54;5.20;;;3.50;;
36377;SDS011;22402;42.746;23.606;2023-09-19T07:04:20;5.37;;;3.60;;
36377;SDS011;22402;42.746;23.606;2023-09-19T07:06:52;4.50;;;3.90;;
36377;SDS011;22402;42.746;23.606;2023-09-19T07:09:17;4.13;;;3.40;;
36377;SDS011;22402;42.746;23.606;2023-09-19T07:11:47;5.43;;;3.23;;
36377;SDS011;22402;42.746;23.606;2023-09-19T07:14:15;3.47;;;3.10;;
36377;SDS011;22402;42.746;23.606;2023-09-19T07:16:41;3.10;;;2.80;;
36377;SDS011;22402;42.746;23.606;2023-09-19T07:19:09;3.90;;;2.83;;
36377;SDS011;22402;42.746;23.606;2023-09-19T07:21:35;3.40;;;2.50;;
36377;SDS011;22402;42.746;23.606;2023-09-19T07:24:09;3.80;;;3.03;;
36377;SDS011;22402;42.746;23.606;2023-09-19T07:26:35;3.87;;;2.80;;
36377;SDS011;22402;42.746;23.606;2023-09-19T07:29:00;2.43;;;2.20;;
36377;SDS011;22402;42.746;23.606;2023-09-19T07:31:28;9.03;;;2.93;;
36377;SDS011;22402;42.746;23.606;2023-09-19T07:33:54;4.60;;;3.10;;
36377;SDS011;22402;42.746;23.606;2023-09-19T07:36:20;5.37;;;3.83;;
36377;SDS011;22402;42.746;23.606;2023-09-19T07:38:45;7.10;;;4.57;;
36377;SDS011;22402;42.746;23.606;2023-09-19T07:41:11;4.83;;;3.40;;
36377;SDS011;22402;42.746;23.606;2023-09-19T07:43:37;4.13;;;2.87;;
36377;SDS011;22402;42.746;23.606;2023-09-19T07:46:06;7.50;;;3.17;;
36377;SDS011;22402;42.746;23.606;2023-09-19T07:48:34;3.97;;;3.10;;
36377;SDS011;22402;42.746;23.606;2023-09-19T07:51:01;4.23;;;3.10;;
36377;SDS011;22402;42.746;23.606;2023-09-19T07:53:28;3.27;;;2.70;;
36377;SDS011;22402;42.746;23.606;2023-09-19T07:56:01;4.10;;;2.97;;
36377;SDS011;22402;42.746;23.606;2023-09-19T07:58:30;4.80;;;2.60;;
36377;SDS011;22402;42.746;23.606;2023-09-19T08:00:56;3.20;;;2.80;;
36377;SDS011;22402;42.746;23.606;2023-09-19T08:03:27;3.83;;;3.20;;
36377;SDS011;22402;42.746;23.606;2023-09-19T08:05:52;3.80;;;3.10;;
36377;SDS011;22402;42.746;23.606;2023-09-19T08:08:18;3.27;;;2.77;;
36377;SDS011;22402;42.746;23.606;2023-09-19T08:10:43;3.00;;;2.40;;
36377;SDS011;22402;42.746;23.606;2023-09-19T08:13:14;4.50;;;3.27;;
36377;SDS011;22402;42.746;23.606;2023-09-19T08:15:43;3.70;;;2.67;;
36377;SDS011;22402;42.746;23.606;2023-09-19T08:18:09;3.07;;;2.40;;
36377;SDS011;22402;42.746;23.606;2023-09-19T08:20:38;5.13;;;3.37;;
36377;SDS011;22402;42.746;23.606;2023-09-19T08:23:03;4.50;;;3.47;;
36377;SDS011;22402;42.746;23.606;2023-09-19T08:25:29;4.00;;;2.87;;
36377;SDS011;22402;42.746;23.606;2023-09-19T08:27:56;5.30;;;3.20;;
36377;SDS011;22402;42.746;23.606;2023-09-19T08:30:25;3.07;;;2.70;;
36377;SDS011;22402;42.746;23.606;2023-09-19T08:32:58;2.87;;;2.67;;
36377;SDS011;22402;42.746;23.606;2023-09-19T08:35:24;4.37;;;2.43;;
36377;SDS011;22402;42.746;23.606;2023-09-19T08:37:49;3.50;;;2.90;;
36377;SDS011;22402;42.746;23.606;2023-09-19T08:40:16;4.20;;;2.53;;
36377;SDS011;22402;42.746;23.606;2023-09-19T08:42:52;4.60;;;2.70;;
36377;SDS011;22402;42.746;23.606;2023-09-19T08:45:20;3.03;;;2.63;;
36377;SDS011;22402;42.746;23.606;2023-09-19T08:47:56;4.73;;;2.33;;
36377;SDS011;22402;42.746;23.606;2023-09-19T08:50:31;4.00;;;2.27;;
36377;SDS011;22402;42.746;23.606;2023-09-19T08:53:06;4.23;;;2.60;;
36377;SDS011;22402;42.746;23.606;2023-09-19T08:55:37;3.47;;;3.17;;
36377;SDS011;22402;42.746;23.606;2023-09-19T08:58:06;3.27;;;2.30;;
36377;SDS011;22402;42.746;23.606;2023-09-19T09:00:35;3.00;;;2.70;;
36377;SDS011;22402;42.746;23.606;2023-09-19T09:03:02;3.97;;;2.67;;
36377;SDS011;22402;42.746;23.606;2023-09-19T09:05:29;2.53;;;2.23;;
36377;SDS011;22402;42.746;23.606;2023-09-19T09:07:55;4.77;;;2.50;;
36377;SDS011;22402;42.746;23.606;2023-09-19T09:10:22;3.27;;;2.70;;
36377;SDS011;22402;42.746;23.606;2023-09-19T09:12:50;4.60;;;2.80;;
36377;SDS011;22402;42.746;23.606;2023-09-19T09:15:18;2.67;;;2.10;;
36377;SDS011;22402;42.746;23.606;2023-09-19T09:20:19;2.47;;;2.23;;
36377;SDS011;22402;42.746;23.606;2023-09-19T09:22:55;2.37;;;1.73;;
36377;SDS011;22402;42.746;23.606;2023-09-19T09:25:23;2.20;;;2.00;;
36377;SDS011;22402;42.746;23.606;2023-09-19T09:28:24;4.30;;;2.23;;
36377;SDS011;22402;42.746;23.606;2023-09-19T09:30:50;3.73;;;1.73;;
36377;SDS011;22402;42.746;23.606;2023-09-19T09:33:16;2.33;;;2.10;;
36377;SDS011;22402;42.746;23.606;2023-09-19T09:35:47;2.33;;;2.17;;
36377;SDS011;22402;42.746;23.606;2023-09-19T09:38:25;2.83;;;2.20;;
36377;SDS011;22402;42.746;23.606;2023-09-19T09:41:10;3.37;;;2.60;;
36377;SDS011;22402;42.746;23.606;2023-09-19T09:43:40;2.23;;;2.03;;
36377;SDS011;22402;42.746;23.606;2023-09-19T09:49:00;2.30;;;2.03;;
36377;SDS011;22402;42.746;23.606;2023-09-19T09:51:57;2.30;;;1.83;;
36377;SDS011;22402;42.746;23.606;2023-09-19T09:54:26;3.50;;;1.90;;
36377;SDS011;22402;42.746;23.606;2023-09-19T09:57:02;2.30;;;2.00;;
36377;SDS011;22402;42.746;23.606;2023-09-19T10:02:30;3.90;;;2.43;;
36377;SDS011;22402;42.746;23.606;2023-09-19T10:05:22;2.37;;;2.20;;
36377;SDS011;22402;42.746;23.606;2023-09-19T10:07:53;3.20;;;2.30;;
36377;SDS011;22402;42.746;23.606;2023-09-19T10:13:10;3.83;;;2.83;;
36377;SDS011;22402;42.746;23.606;2023-09-19T10:15:40;5.97;;;4.50;;
36377;SDS011;22402;42.746;23.606;2023-09-19T10:18:11;5.90;;;4.40;;
36377;SDS011;22402;42.746;23.606;2023-09-19T10:20:43;7.77;;;4.80;;
36377;SDS011;22402;42.746;23.606;2023-09-19T10:23:10;10.37;;;3.30;;
36377;SDS011;22402;42.746;23.606;2023-09-19T10:25:45;3.90;;;2.60;;
36377;SDS011;22402;42.746;23.606;2023-09-19T10:28:13;3.50;;;2.60;;
36377;SDS011;22402;42.746;23.606;2023-09-19T10:30:43;2.90;;;2.57;;
36377;SDS011;22402;42.746;23.606;2023-09-19T10:33:13;3.30;;;2.83;;
36377;SDS011;22402;42.746;23.606;2023-09-19T10:35:44;4.70;;;3.70;;
36377;SDS011;22402;42.746;23.606;2023-09-19T10:38:11;3.40;;;2.87;;
36377;SDS011;22402;42.746;23.606;2023-09-19T10:40:38;3.13;;;2.70;;
36377;SDS011;22402;42.746;23.606;2023-09-19T10:43:17;4.43;;;2.80;;
36377;SDS011;22402;42.746;23.606;2023-09-19T10:45:46;2.10;;;1.90;;
36377;SDS011;22402;42.746;23.606;2023-09-19T10:48:14;2.40;;;2.17;;
36377;SDS011;22402;42.746;23.606;2023-09-19T10:51:05;4.60;;;2.43;;
36377;SDS011;22402;42.746;23.606;2023-09-19T10:53:54;3.63;;;2.53;;
36377;SDS011;22402;42.746;23.606;2023-09-19T10:56:26;3.10;;;2.50;;
36377;SDS011;22402;42.746;23.606;2023-09-19T10:59:33;4.13;;;2.53;;
36377;SDS011;22402;42.746;23.606;2023-09-19T11:02:00;3.20;;;2.90;;
36377;SDS011;22402;42.746;23.606;2023-09-19T11:04:42;2.97;;;2.40;;
36377;SDS011;22402;42.746;23.606;2023-09-19T11:07:09;4.23;;;2.87;;
36377;SDS011;22402;42.746;23.606;2023-09-19T11:09:45;3.50;;;2.83;;
36377;SDS011;22402;42.746;23.606;2023-09-19T11:12:12;2.50;;;2.30;;
36377;SDS011;22402;42.746;23.606;2023-09-19T11:15:06;4.40;;;2.60;;
36377;SDS011;22402;42.746;23.606;2023-09-19T11:17:34;3.13;;;2.83;;
36377;SDS011;22402;42.746;23.606;2023-09-19T11:30:31;2.80;;;2.50;;
36377;SDS011;22402;42.746;23.606;2023-09-19T11:43:45;2.67;;;2.47;;
36377;SDS011;22402;42.746;23.606;2023-09-19T11:46:11;3.60;;;2.93;;
36377;SDS011;22402;42.746;23.606;2023-09-19T11:48:38;2.60;;;2.40;;
36377;SDS011;22402;42.746;23.606;2023-09-19T11:51:12;2.73;;;2.27;;
36377;SDS011;22402;42.746;23.606;2023-09-19T11:53:47;4.23;;;2.30;;
36377;SDS011;22402;42.746;23.606;2023-09-19T11:56:16;5.10;;;3.20;;
36377;SDS011;22402;42.746;23.606;2023-09-19T11:58:45;3.57;;;3.13;;
36377;SDS011;22402;42.746;23.606;2023-09-19T12:01:14;3.63;;;3.20;;
36377;SDS011;22402;42.746;23.606;2023-09-19T12:03:52;2.73;;;2.53;;
36377;SDS011;22402;42.746;23.606;2023-09-19T12:06:20;3.73;;;2.77;;
36377;SDS011;22402;42.746;23.606;2023-09-19T12:08:47;2.80;;;2.43;;
36377;SDS011;22402;42.746;23.606;2023-09-19T12:11:14;4.03;;;3.17;;
36377;SDS011;22402;42.746;23.606;2023-09-19T12:13:41;3.60;;;3.30;;
36377;SDS011;22402;42.746;23.606;2023-09-19T12:16:11;3.40;;;3.10;;
36377;SDS011;22402;42.746;23.606;2023-09-19T12:18:40;3.50;;;2.90;;
36377;SDS011;22402;42.746;23.606;2023-09-19T12:24:09;3.53;;;2.90;;
36377;SDS011;22402;42.746;23.606;2023-09-19T12:26:44;4.60;;;2.73;;
36377;SDS011;22402;42.746;23.606;2023-09-19T12:29:13;3.30;;;2.70;;
36377;SDS011;22402;42.746;23.606;2023-09-19T12:34:19;3.70;;;2.73;;
36377;SDS011;22402;42.746;23.606;2023-09-19T12:36:46;5.10;;;2.43;;
36377;SDS011;22402;42.746;23.606;2023-09-19T12:39:22;3.03;;;2.80;;
36377;SDS011;22402;42.746;23.606;2023-09-19T12:41:48;2.97;;;2.70;;
36377;SDS011;22402;42.746;23.606;2023-09-19T12:44:15;3.40;;;2.40;;
36377;SDS011;22402;42.746;23.606;2023-09-19T12:46:43;2.17;;;1.87;;
36377;SDS011;22402;42.746;23.606;2023-09-19T12:49:19;2.20;;;2.00;;
36377;SDS011;22402;42.746;23.606;2023-09-19T12:51:46;4.87;;;2.97;;
36377;SDS011;22402;42.746;23.606;2023-09-19T12:54:12;3.13;;;2.47;;
36377;SDS011;22402;42.746;23.606;2023-09-19T12:56:45;2.40;;;2.20;;
36377;SDS011;22402;42.746;23.606;2023-09-19T12:59:13;3.57;;;2.47;;
36377;SDS011;22402;42.746;23.606;2023-09-19T13:01:40;2.60;;;2.40;;
36377;SDS011;22402;42.746;23.606;2023-09-19T13:04:12;2.93;;;2.57;;
36377;SDS011;22402;42.746;23.606;2023-09-19T13:06:47;3.07;;;2.47;;
36377;SDS011;22402;42.746;23.606;2023-09-19T13:09:16;5.20;;;2.97;;
36377;SDS011;22402;42.746;23.606;2023-09-19T13:11:43;2.40;;;2.10;;
36377;SDS011;22402;42.746;23.606;2023-09-19T13:14:15;2.60;;;2.40;;
36377;SDS011;22402;42.746;23.606;2023-09-19T13:17:01;5.63;;;2.33;;
36377;SDS011;22402;42.746;23.606;2023-09-19T13:25:20;2.37;;;2.17;;
36377;SDS011;22402;42.746;23.606;2023-09-19T13:27:53;2.60;;;2.40;;
36377;SDS011;22402;42.746;23.606;2023-09-19T13:30:24;2.50;;;2.30;;
36377;SDS011;22402;42.746;23.606;2023-09-19T13:32:52;2.40;;;2.20;;
36377;SDS011;22402;42.746;23.606;2023-09-19T13:35:19;9.17;;;2.67;;
36377;SDS011;22402;42.746;23.606;2023-09-19T13:37:47;2.50;;;2.30;;
36377;SDS011;22402;42.746;23.606;2023-09-19T13:40:16;2.63;;;2.43;;
36377;SDS011;22402;42.746;23.606;2023-09-19T13:42:42;2.60;;;2.17;;
36377;SDS011;22402;42.746;23.606;2023-09-19T13:45:08;2.73;;;2.53;;
36377;SDS011;22402;42.746;23.606;2023-09-19T13:47:37;3.03;;;2.40;;
36377;SDS011;22402;42.746;23.606;2023-09-19T13:50:03;2.43;;;2.23;;
36377;SDS011;22402;42.746;23.606;2023-09-19T13:52:30;3.20;;;2.47;;
36377;SDS011;22402;42.746;23.606;2023-09-19T13:54:57;2.80;;;2.40;;
36377;SDS011;22402;42.746;23.606;2023-09-19T13:57:26;3.03;;;2.77;;
36377;SDS011;22402;42.746;23.606;2023-09-19T13:59:52;3.13;;;2.83;;
36377;SDS011;22402;42.746;23.606;2023-09-19T14:02:19;4.67;;;3.00;;
36377;SDS011;22402;42.746;23.606;2023-09-19T14:04:47;3.00;;;2.70;;
36377;SDS011;22402;42.746;23.606;2023-09-19T14:07:13;5.97;;;2.70;;
36377;SDS011;22402;42.746;23.606;2023-09-19T14:09:40;2.60;;;2.40;;
36377;SDS011;22402;42.746;23.606;2023-09-19T14:12:05;3.33;;;2.57;;
36377;SDS011;22402;42.746;23.606;2023-09-19T14:14:31;3.10;;;2.80;;
36377;SDS011;22402;42.746;23.606;2023-09-19T14:16:57;4.20;;;2.70;;
36377;SDS011;22402;42.746;23.606;2023-09-19T14:19:25;4.70;;;3.20;;
36377;SDS011;22402;42.746;23.606;2023-09-19T14:21:52;3.47;;;3.13;;
36377;SDS011;22402;42.746;23.606;2023-09-19T14:24:20;5.17;;;3.50;;
36377;SDS011;22402;42.746;23.606;2023-09-19T14:26:47;6.50;;;3.27;;
36377;SDS011;22402;42.746;23.606;2023-09-19T14:29:12;6.40;;;3.30;;
36377;SDS011;22402;42.746;23.606;2023-09-19T14:31:39;4.23;;;2.97;;
36377;SDS011;22402;42.746;23.606;2023-09-19T14:34:08;4.50;;;3.03;;
36377;SDS011;22402;42.746;23.606;2023-09-19T14:36:37;3.83;;;3.20;;
36377;SDS011;22402;42.746;23.606;2023-09-19T14:39:06;3.53;;;3.23;;
36377;SDS011;22402;42.746;23.606;2023-09-19T14:41:33;2.67;;;2.47;;
36377;SDS011;22402;42.746;23.606;2023-09-19T14:43:59;3.47;;;3.17;;
36377;SDS011;22402;42.746;23.606;2023-09-19T14:46:24;4.90;;;3.43;;
36377;SDS011;22402;42.746;23.606;2023-09-19T14:48:53;7.33;;;3.60;;
36377;SDS011;22402;42.746;23.606;2023-09-19T14:51:18;3.27;;;2.73;;
36377;SDS011;22402;42.746;23.606;2023-09-19T14:53:44;4.40;;;3.80;;
36377;SDS011;22402;42.746;23.606;2023-09-19T14:56:11;6.07;;;3.70;;
36377;SDS011;22402;42.746;23.606;2023-09-19T14:58:38;4.30;;;3.33;;
36377;SDS011;22402;42.746;23.606;2023-09-19T15:01:08;4.77;;;3.57;;
36377;SDS011;22402;42.746;23.606;2023-09-19T15:03:37;4.10;;;3.70;;
36377;SDS011;22402;42.746;23.606;2023-09-19T15:06:06;4.97;;;3.20;;
36377;SDS011;22402;42.746;23.606;2023-09-19T15:08:37;5.20;;;3.70;;
36377;SDS011;22402;42.746;23.606;2023-09-19T15:11:05;7.77;;;4.03;;
36377;SDS011;22402;42.746;23.606;2023-09-19T15:13:35;4.13;;;3.47;;
36377;SDS011;22402;42.746;23.606;2023-09-19T15:16:01;4.60;;;3.80;;
36377;SDS011;22402;42.746;23.606;2023-09-19T15:18:28;8.00;;;4.67;;
36377;SDS011;22402;42.746;23.606;2023-09-19T15:21:01;6.57;;;5.27;;
36377;SDS011;22402;42.746;23.606;2023-09-19T15:23:27;11.57;;;5.97;;
36377;SDS011;22402;42.746;23.606;2023-09-19T15:25:54;9.30;;;5.57;;
36377;SDS011;22402;42.746;23.606;2023-09-19T15:28:20;10.80;;;6.23;;
36377;SDS011;22402;42.746;23.606;2023-09-19T15:30:47;15.00;;;5.50;;
36377;SDS011;22402;42.746;23.606;2023-09-19T15:33:22;8.80;;;5.87;;
36377;SDS011;22402;42.746;23.606;2023-09-19T15:35:47;6.83;;;5.57;;
36377;SDS011;22402;42.746;23.606;2023-09-19T15:38:13;6.03;;;5.30;;
36377;SDS011;22402;42.746;23.606;2023-09-19T15:40:45;7.37;;;4.90;;
36377;SDS011;22402;42.746;23.606;2023-09-19T15:43:11;7.10;;;5.70;;
36377;SDS011;22402;42.746;23.606;2023-09-19T15:45:37;6.40;;;4.93;;